sensor_id;sensor_type;location;lat;lon;timestamp;P1;durP1;ratioP1;P2;durP2;ratioP2
27939;SDS011;15275;51.716;14.324;2022-12-18T00:01:22;34.80;;;10.23;;
27939;SDS011;15275;51.716;14.324;2022-12-18T00:03:58;30.63;;;9.38;;
27939;SDS011;15275;51.716;14.324;2022-12-18T00:06:27;33.83;;;9.93;;
27939;SDS011;15275;51.716;14.324;2022-12-18T00:08:55;29.42;;;10.02;;
27939;SDS011;15275;51.716;14.324;2022-12-18T00:11:23;32.92;;;10.65;;
27939;SDS011;15275;51.716;14.324;2022-12-18T00:13:53;34.88;;;10.52;;
27939;SDS011;15275;51.716;14.324;2022-12-18T00:16:22;31.35;;;9.13;;
27939;SDS011;15275;51.716;14.324;2022-12-18T00:18:50;35.85;;;11.10;;
27939;SDS011;15275;51.716;14.324;2022-12-18T00:21:24;35.55;;;10.68;;
27939;SDS011;15275;51.716;14.324;2022-12-18T00:23:51;35.75;;;10.68;;
27939;SDS011;15275;51.716;14.324;2022-12-18T00:26:28;35.13;;;10.20;;
27939;SDS011;15275;51.716;14.324;2022-12-18T00:29:04;35.90;;;10.38;;
27939;SDS011;15275;51.716;14.324;2022-12-18T00:31:36;35.25;;;9.85;;
27939;SDS011;15275;51.716;14.324;2022-12-18T00:34:03;33.92;;;9.85;;
27939;SDS011;15275;51.716;14.324;2022-12-18T00:36:30;32.40;;;10.10;;
27939;SDS011;15275;51.716;14.324;2022-12-18T00:38:59;38.22;;;10.10;;
27939;SDS011;15275;51.716;14.324;2022-12-18T00:41:27;32.80;;;9.55;;
27939;SDS011;15275;51.716;14.324;2022-12-18T00:44:13;37.88;;;11.23;;
27939;SDS011;15275;51.716;14.324;2022-12-18T00:46:42;34.05;;;10.05;;
27939;SDS011;15275;51.716;14.324;2022-12-18T00:49:09;37.13;;;11.07;;
27939;SDS011;15275;51.716;14.324;2022-12-18T00:51:39;38.05;;;12.32;;
27939;SDS011;15275;51.716;14.324;2022-12-18T00:54:05;32.97;;;10.07;;
27939;SDS011;15275;51.716;14.324;2022-12-18T00:56:32;32.03;;;10.77;;
27939;SDS011;15275;51.716;14.324;2022-12-18T00:58:58;37.70;;;10.77;;
27939;SDS011;15275;51.716;14.324;2022-12-18T01:01:23;34.13;;;10.63;;
27939;SDS011;15275;51.716;14.324;2022-12-18T01:03:49;35.58;;;11.18;;
27939;SDS011;15275;51.716;14.324;2022-12-18T01:06:16;33.35;;;10.48;;
27939;SDS011;15275;51.716;14.324;2022-12-18T01:08:43;34.75;;;10.27;;
27939;SDS011;15275;51.716;14.324;2022-12-18T01:11:11;31.98;;;11.27;;
27939;SDS011;15275;51.716;14.324;2022-12-18T01:13:44;30.63;;;10.05;;
27939;SDS011;15275;51.716;14.324;2022-12-18T01:16:13;34.10;;;9.93;;
27939;SDS011;15275;51.716;14.324;2022-12-18T01:18:41;30.13;;;9.68;;
27939;SDS011;15275;51.716;14.324;2022-12-18T01:21:08;32.10;;;9.27;;
27939;SDS011;15275;51.716;14.324;2022-12-18T01:23:37;28.95;;;9.63;;
27939;SDS011;15275;51.716;14.324;2022-12-18T01:26:06;33.45;;;9.23;;
27939;SDS011;15275;51.716;14.324;2022-12-18T01:28:40;36.28;;;10.43;;
27939;SDS011;15275;51.716;14.324;2022-12-18T01:31:18;31.27;;;9.35;;
27939;SDS011;15275;51.716;14.324;2022-12-18T01:33:47;28.85;;;9.65;;
27939;SDS011;15275;51.716;14.324;2022-12-18T01:36:19;24.75;;;8.35;;
27939;SDS011;15275;51.716;14.324;2022-12-18T01:38:48;21.30;;;7.90;;
27939;SDS011;15275;51.716;14.324;2022-12-18T01:41:16;28.20;;;7.90;;
27939;SDS011;15275;51.716;14.324;2022-12-18T01:43:45;24.65;;;8.40;;
27939;SDS011;15275;51.716;14.324;2022-12-18T01:46:21;26.98;;;9.27;;
27939;SDS011;15275;51.716;14.324;2022-12-18T01:48:56;25.23;;;8.43;;
27939;SDS011;15275;51.716;14.324;2022-12-18T01:51:25;31.45;;;10.40;;
27939;SDS011;15275;51.716;14.324;2022-12-18T01:53:54;24.33;;;9.68;;
27939;SDS011;15275;51.716;14.324;2022-12-18T01:56:20;27.30;;;9.00;;
27939;SDS011;15275;51.716;14.324;2022-12-18T02:01:26;23.40;;;8.02;;
27939;SDS011;15275;51.716;14.324;2022-12-18T02:03:52;31.10;;;9.93;;
27939;SDS011;15275;51.716;14.324;2022-12-18T02:06:20;31.80;;;9.25;;
27939;SDS011;15275;51.716;14.324;2022-12-18T02:09:13;29.67;;;9.07;;
27939;SDS011;15275;51.716;14.324;2022-12-18T02:14:45;27.33;;;8.52;;
27939;SDS011;15275;51.716;14.324;2022-12-18T02:26:20;30.05;;;9.60;;
27939;SDS011;15275;51.716;14.324;2022-12-18T02:32:12;27.20;;;8.82;;
27939;SDS011;15275;51.716;14.324;2022-12-18T02:34:45;28.52;;;8.75;;
27939;SDS011;15275;51.716;14.324;2022-12-18T02:37:12;33.47;;;11.00;;
27939;SDS011;15275;51.716;14.324;2022-12-18T02:39:42;34.53;;;10.32;;
27939;SDS011;15275;51.716;14.324;2022-12-18T02:42:11;43.38;;;11.20;;
27939;SDS011;15275;51.716;14.324;2022-12-18T02:44:48;37.53;;;11.48;;
27939;SDS011;15275;51.716;14.324;2022-12-18T02:47:16;34.28;;;9.75;;
27939;SDS011;15275;51.716;14.324;2022-12-18T02:52:41;40.83;;;12.95;;
27939;SDS011;15275;51.716;14.324;2022-12-18T02:56:03;30.38;;;10.32;;
27939;SDS011;15275;51.716;14.324;2022-12-18T02:59:06;33.55;;;10.60;;
27939;SDS011;15275;51.716;14.324;2022-12-18T03:02:05;30.58;;;11.02;;
27939;SDS011;15275;51.716;14.324;2022-12-18T03:04:49;34.67;;;9.88;;
27939;SDS011;15275;51.716;14.324;2022-12-18T03:07:53;33.13;;;11.15;;
27939;SDS011;15275;51.716;14.324;2022-12-18T03:11:01;27.67;;;10.10;;
27939;SDS011;15275;51.716;14.324;2022-12-18T03:16:18;37.28;;;10.38;;
27939;SDS011;15275;51.716;14.324;2022-12-18T03:18:54;39.95;;;11.18;;
27939;SDS011;15275;51.716;14.324;2022-12-18T03:21:43;33.67;;;10.45;;
27939;SDS011;15275;51.716;14.324;2022-12-18T03:24:15;39.13;;;11.23;;
27939;SDS011;15275;51.716;14.324;2022-12-18T03:26:45;38.97;;;11.70;;
27939;SDS011;15275;51.716;14.324;2022-12-18T03:29:18;38.70;;;11.93;;
27939;SDS011;15275;51.716;14.324;2022-12-18T03:31:56;39.05;;;10.23;;
27939;SDS011;15275;51.716;14.324;2022-12-18T03:34:55;30.80;;;10.48;;
27939;SDS011;15275;51.716;14.324;2022-12-18T03:37:26;35.17;;;12.23;;
27939;SDS011;15275;51.716;14.324;2022-12-18T03:39:52;41.35;;;12.32;;
27939;SDS011;15275;51.716;14.324;2022-12-18T03:45:09;32.95;;;10.02;;
27939;SDS011;15275;51.716;14.324;2022-12-18T03:50:46;31.02;;;9.98;;
27939;SDS011;15275;51.716;14.324;2022-12-18T03:56:09;33.53;;;10.10;;
27939;SDS011;15275;51.716;14.324;2022-12-18T03:58:37;40.03;;;10.63;;
27939;SDS011;15275;51.716;14.324;2022-12-18T04:01:08;31.20;;;9.23;;
27939;SDS011;15275;51.716;14.324;2022-12-18T04:03:38;32.85;;;9.02;;
27939;SDS011;15275;51.716;14.324;2022-12-18T04:06:05;40.30;;;10.93;;
27939;SDS011;15275;51.716;14.324;2022-12-18T04:08:32;33.33;;;9.02;;
27939;SDS011;15275;51.716;14.324;2022-12-18T04:11:00;30.80;;;9.52;;
27939;SDS011;15275;51.716;14.324;2022-12-18T04:13:28;30.73;;;8.77;;
27939;SDS011;15275;51.716;14.324;2022-12-18T04:15:58;36.35;;;9.95;;
27939;SDS011;15275;51.716;14.324;2022-12-18T04:18:24;32.53;;;10.00;;
27939;SDS011;15275;51.716;14.324;2022-12-18T04:20:50;35.28;;;9.93;;
27939;SDS011;15275;51.716;14.324;2022-12-18T04:23:16;37.45;;;12.13;;
27939;SDS011;15275;51.716;14.324;2022-12-18T04:25:41;38.05;;;10.07;;
27939;SDS011;15275;51.716;14.324;2022-12-18T04:28:07;35.03;;;11.20;;
27939;SDS011;15275;51.716;14.324;2022-12-18T04:30:33;34.70;;;9.93;;
27939;SDS011;15275;51.716;14.324;2022-12-18T04:32:59;34.83;;;10.15;;
27939;SDS011;15275;51.716;14.324;2022-12-18T04:35:25;28.83;;;9.73;;
27939;SDS011;15275;51.716;14.324;2022-12-18T04:37:52;33.28;;;10.35;;
27939;SDS011;15275;51.716;14.324;2022-12-18T04:40:18;37.30;;;10.30;;
27939;SDS011;15275;51.716;14.324;2022-12-18T04:42:43;31.98;;;10.05;;
27939;SDS011;15275;51.716;14.324;2022-12-18T04:45:09;32.10;;;9.98;;
27939;SDS011;15275;51.716;14.324;2022-12-18T04:47:35;31.88;;;9.98;;
27939;SDS011;15275;51.716;14.324;2022-12-18T04:50:01;36.50;;;10.88;;
27939;SDS011;15275;51.716;14.324;2022-12-18T04:52:31;34.50;;;11.57;;
27939;SDS011;15275;51.716;14.324;2022-12-18T04:54:57;35.05;;;10.48;;
27939;SDS011;15275;51.716;14.324;2022-12-18T04:57:23;32.97;;;10.57;;
27939;SDS011;15275;51.716;14.324;2022-12-18T04:59:49;30.20;;;9.27;;
27939;SDS011;15275;51.716;14.324;2022-12-18T05:02:15;28.48;;;10.18;;
27939;SDS011;15275;51.716;14.324;2022-12-18T05:04:41;36.67;;;10.20;;
27939;SDS011;15275;51.716;14.324;2022-12-18T05:07:06;34.15;;;10.52;;
27939;SDS011;15275;51.716;14.324;2022-12-18T05:09:32;33.70;;;11.15;;
27939;SDS011;15275;51.716;14.324;2022-12-18T05:11:58;34.35;;;11.18;;
27939;SDS011;15275;51.716;14.324;2022-12-18T05:14:24;29.92;;;9.65;;
27939;SDS011;15275;51.716;14.324;2022-12-18T05:16:50;32.33;;;10.90;;
27939;SDS011;15275;51.716;14.324;2022-12-18T05:19:16;36.50;;;11.43;;
27939;SDS011;15275;51.716;14.324;2022-12-18T05:21:42;36.17;;;10.48;;
27939;SDS011;15275;51.716;14.324;2022-12-18T05:24:08;36.70;;;11.15;;
27939;SDS011;15275;51.716;14.324;2022-12-18T05:26:33;31.35;;;11.20;;
27939;SDS011;15275;51.716;14.324;2022-12-18T05:28:59;34.03;;;11.27;;
27939;SDS011;15275;51.716;14.324;2022-12-18T05:31:25;43.03;;;11.27;;
27939;SDS011;15275;51.716;14.324;2022-12-18T05:33:51;36.67;;;11.00;;
27939;SDS011;15275;51.716;14.324;2022-12-18T05:36:17;34.35;;;12.27;;
27939;SDS011;15275;51.716;14.324;2022-12-18T05:38:43;28.98;;;10.90;;
27939;SDS011;15275;51.716;14.324;2022-12-18T05:41:09;36.08;;;11.30;;
27939;SDS011;15275;51.716;14.324;2022-12-18T05:43:36;33.47;;;11.45;;
27939;SDS011;15275;51.716;14.324;2022-12-18T05:46:08;35.50;;;11.57;;
27939;SDS011;15275;51.716;14.324;2022-12-18T05:48:38;38.95;;;11.18;;
27939;SDS011;15275;51.716;14.324;2022-12-18T05:51:08;34.55;;;12.55;;
27939;SDS011;15275;51.716;14.324;2022-12-18T05:53:40;36.03;;;12.15;;
27939;SDS011;15275;51.716;14.324;2022-12-18T05:56:08;37.55;;;12.43;;
27939;SDS011;15275;51.716;14.324;2022-12-18T05:58:45;35.13;;;12.15;;
27939;SDS011;15275;51.716;14.324;2022-12-18T06:01:16;34.83;;;12.30;;
27939;SDS011;15275;51.716;14.324;2022-12-18T06:03:46;34.25;;;12.43;;
27939;SDS011;15275;51.716;14.324;2022-12-18T06:06:16;37.00;;;12.10;;
27939;SDS011;15275;51.716;14.324;2022-12-18T06:08:45;34.53;;;11.80;;
27939;SDS011;15275;51.716;14.324;2022-12-18T06:11:11;34.83;;;11.60;;
27939;SDS011;15275;51.716;14.324;2022-12-18T06:13:38;29.58;;;11.20;;
27939;SDS011;15275;51.716;14.324;2022-12-18T06:16:04;30.38;;;11.05;;
27939;SDS011;15275;51.716;14.324;2022-12-18T06:18:31;33.97;;;12.25;;
27939;SDS011;15275;51.716;14.324;2022-12-18T06:20:58;32.25;;;10.95;;
27939;SDS011;15275;51.716;14.324;2022-12-18T06:23:25;34.45;;;11.73;;
27939;SDS011;15275;51.716;14.324;2022-12-18T06:25:51;34.50;;;12.18;;
27939;SDS011;15275;51.716;14.324;2022-12-18T06:28:17;28.75;;;10.40;;
27939;SDS011;15275;51.716;14.324;2022-12-18T06:30:44;30.02;;;10.85;;
27939;SDS011;15275;51.716;14.324;2022-12-18T06:33:13;29.35;;;10.15;;
27939;SDS011;15275;51.716;14.324;2022-12-18T06:35:40;25.27;;;9.90;;
27939;SDS011;15275;51.716;14.324;2022-12-18T06:38:06;27.73;;;10.35;;
27939;SDS011;15275;51.716;14.324;2022-12-18T06:40:33;28.35;;;10.52;;
27939;SDS011;15275;51.716;14.324;2022-12-18T06:42:59;27.85;;;11.10;;
27939;SDS011;15275;51.716;14.324;2022-12-18T06:45:25;32.03;;;11.10;;
27939;SDS011;15275;51.716;14.324;2022-12-18T06:47:51;33.78;;;10.65;;
27939;SDS011;15275;51.716;14.324;2022-12-18T06:50:17;29.75;;;11.48;;
27939;SDS011;15275;51.716;14.324;2022-12-18T06:52:43;30.20;;;9.98;;
27939;SDS011;15275;51.716;14.324;2022-12-18T06:55:09;26.17;;;9.50;;
27939;SDS011;15275;51.716;14.324;2022-12-18T06:57:36;26.08;;;9.15;;
27939;SDS011;15275;51.716;14.324;2022-12-18T07:00:04;29.52;;;11.10;;
27939;SDS011;15275;51.716;14.324;2022-12-18T07:02:31;28.05;;;9.02;;
27939;SDS011;15275;51.716;14.324;2022-12-18T07:04:57;27.20;;;9.13;;
27939;SDS011;15275;51.716;14.324;2022-12-18T07:07:23;27.23;;;9.07;;
27939;SDS011;15275;51.716;14.324;2022-12-18T07:09:50;23.58;;;10.60;;
27939;SDS011;15275;51.716;14.324;2022-12-18T07:12:16;29.48;;;10.57;;
27939;SDS011;15275;51.716;14.324;2022-12-18T07:14:43;29.35;;;11.13;;
27939;SDS011;15275;51.716;14.324;2022-12-18T07:17:09;29.42;;;9.55;;
27939;SDS011;15275;51.716;14.324;2022-12-18T07:19:35;25.95;;;10.10;;
27939;SDS011;15275;51.716;14.324;2022-12-18T07:22:01;36.53;;;11.45;;
27939;SDS011;15275;51.716;14.324;2022-12-18T07:24:27;23.60;;;9.32;;
27939;SDS011;15275;51.716;14.324;2022-12-18T07:26:53;23.92;;;9.95;;
27939;SDS011;15275;51.716;14.324;2022-12-18T07:29:19;27.58;;;10.95;;
27939;SDS011;15275;51.716;14.324;2022-12-18T07:31:45;26.95;;;9.70;;
27939;SDS011;15275;51.716;14.324;2022-12-18T07:34:11;24.70;;;10.60;;
27939;SDS011;15275;51.716;14.324;2022-12-18T07:36:39;25.33;;;11.68;;
27939;SDS011;15275;51.716;14.324;2022-12-18T07:39:06;30.95;;;11.63;;
27939;SDS011;15275;51.716;14.324;2022-12-18T07:41:32;23.55;;;9.75;;
27939;SDS011;15275;51.716;14.324;2022-12-18T07:43:58;24.45;;;9.77;;
27939;SDS011;15275;51.716;14.324;2022-12-18T07:46:24;22.63;;;10.45;;
27939;SDS011;15275;51.716;14.324;2022-12-18T07:48:50;24.13;;;10.05;;
27939;SDS011;15275;51.716;14.324;2022-12-18T07:51:17;24.42;;;9.60;;
27939;SDS011;15275;51.716;14.324;2022-12-18T07:53:43;18.10;;;8.05;;
27939;SDS011;15275;51.716;14.324;2022-12-18T07:56:10;22.83;;;9.07;;
27939;SDS011;15275;51.716;14.324;2022-12-18T07:58:38;24.95;;;9.93;;
27939;SDS011;15275;51.716;14.324;2022-12-18T08:01:08;29.00;;;10.98;;
27939;SDS011;15275;51.716;14.324;2022-12-18T08:03:37;23.10;;;9.38;;
27939;SDS011;15275;51.716;14.324;2022-12-18T08:06:06;30.75;;;10.50;;
27939;SDS011;15275;51.716;14.324;2022-12-18T08:08:34;32.38;;;11.93;;
27939;SDS011;15275;51.716;14.324;2022-12-18T08:11:01;23.45;;;9.90;;
27939;SDS011;15275;51.716;14.324;2022-12-18T08:13:27;27.48;;;11.25;;
27939;SDS011;15275;51.716;14.324;2022-12-18T08:16:04;25.15;;;10.38;;
27939;SDS011;15275;51.716;14.324;2022-12-18T08:18:35;26.25;;;9.38;;
27939;SDS011;15275;51.716;14.324;2022-12-18T08:21:09;24.67;;;9.55;;
27939;SDS011;15275;51.716;14.324;2022-12-18T08:23:40;28.98;;;9.85;;
27939;SDS011;15275;51.716;14.324;2022-12-18T08:26:06;29.75;;;10.52;;
27939;SDS011;15275;51.716;14.324;2022-12-18T08:28:33;27.83;;;10.02;;
27939;SDS011;15275;51.716;14.324;2022-12-18T08:30:59;28.52;;;10.30;;
27939;SDS011;15275;51.716;14.324;2022-12-18T08:33:25;29.92;;;12.40;;
27939;SDS011;15275;51.716;14.324;2022-12-18T08:35:52;27.38;;;11.50;;
27939;SDS011;15275;51.716;14.324;2022-12-18T08:38:18;24.50;;;10.13;;
27939;SDS011;15275;51.716;14.324;2022-12-18T08:40:44;19.67;;;8.07;;
27939;SDS011;15275;51.716;14.324;2022-12-18T08:43:10;22.25;;;9.23;;
27939;SDS011;15275;51.716;14.324;2022-12-18T08:45:59;21.30;;;8.60;;
27939;SDS011;15275;51.716;14.324;2022-12-18T08:48:25;19.17;;;7.93;;
27939;SDS011;15275;51.716;14.324;2022-12-18T08:50:58;19.67;;;8.50;;
27939;SDS011;15275;51.716;14.324;2022-12-18T08:53:25;18.60;;;6.93;;
27939;SDS011;15275;51.716;14.324;2022-12-18T08:55:52;19.52;;;7.45;;
27939;SDS011;15275;51.716;14.324;2022-12-18T08:58:18;24.40;;;10.18;;
27939;SDS011;15275;51.716;14.324;2022-12-18T09:00:44;24.77;;;9.10;;
27939;SDS011;15275;51.716;14.324;2022-12-18T09:03:19;21.70;;;9.10;;
27939;SDS011;15275;51.716;14.324;2022-12-18T09:05:47;22.65;;;8.13;;
27939;SDS011;15275;51.716;14.324;2022-12-18T09:08:13;20.92;;;8.60;;
27939;SDS011;15275;51.716;14.324;2022-12-18T09:10:43;19.02;;;7.55;;
27939;SDS011;15275;51.716;14.324;2022-12-18T09:13:12;24.90;;;9.10;;
27939;SDS011;15275;51.716;14.324;2022-12-18T09:15:44;23.55;;;9.18;;
27939;SDS011;15275;51.716;14.324;2022-12-18T09:18:12;23.33;;;8.80;;
27939;SDS011;15275;51.716;14.324;2022-12-18T09:20:40;23.60;;;8.48;;
27939;SDS011;15275;51.716;14.324;2022-12-18T09:23:06;22.95;;;9.00;;
27939;SDS011;15275;51.716;14.324;2022-12-18T09:25:33;23.67;;;8.77;;
27939;SDS011;15275;51.716;14.324;2022-12-18T09:28:04;19.52;;;9.32;;
27939;SDS011;15275;51.716;14.324;2022-12-18T09:30:36;19.90;;;8.15;;
27939;SDS011;15275;51.716;14.324;2022-12-18T09:33:07;21.00;;;9.52;;
27939;SDS011;15275;51.716;14.324;2022-12-18T09:35:37;27.55;;;9.48;;
27939;SDS011;15275;51.716;14.324;2022-12-18T09:38:04;24.98;;;9.55;;
27939;SDS011;15275;51.716;14.324;2022-12-18T09:40:33;22.88;;;9.32;;
27939;SDS011;15275;51.716;14.324;2022-12-18T09:43:58;24.02;;;8.95;;
27939;SDS011;15275;51.716;14.324;2022-12-18T09:46:06;23.15;;;9.23;;
27939;SDS011;15275;51.716;14.324;2022-12-18T09:48:41;20.73;;;9.18;;
27939;SDS011;15275;51.716;14.324;2022-12-18T09:51:18;22.00;;;9.65;;
27939;SDS011;15275;51.716;14.324;2022-12-18T09:53:55;18.10;;;8.30;;
27939;SDS011;15275;51.716;14.324;2022-12-18T09:56:28;17.88;;;8.63;;
27939;SDS011;15275;51.716;14.324;2022-12-18T09:58:59;19.90;;;8.95;;
27939;SDS011;15275;51.716;14.324;2022-12-18T10:01:28;22.73;;;9.40;;
27939;SDS011;15275;51.716;14.324;2022-12-18T10:03:55;24.15;;;9.20;;
27939;SDS011;15275;51.716;14.324;2022-12-18T10:17:39;23.58;;;10.23;;
27939;SDS011;15275;51.716;14.324;2022-12-18T10:20:20;25.70;;;11.05;;
27939;SDS011;15275;51.716;14.324;2022-12-18T10:23:00;20.65;;;9.57;;
27939;SDS011;15275;51.716;14.324;2022-12-18T10:28:32;25.38;;;9.10;;
27939;SDS011;15275;51.716;14.324;2022-12-18T10:31:24;20.45;;;8.63;;
27939;SDS011;15275;51.716;14.324;2022-12-18T10:33:50;24.42;;;8.60;;
27939;SDS011;15275;51.716;14.324;2022-12-18T10:36:19;23.42;;;9.40;;
27939;SDS011;15275;51.716;14.324;2022-12-18T10:38:46;22.00;;;8.73;;
27939;SDS011;15275;51.716;14.324;2022-12-18T10:43:45;19.90;;;8.77;;
27939;SDS011;15275;51.716;14.324;2022-12-18T10:46:12;30.67;;;12.23;;
27939;SDS011;15275;51.716;14.324;2022-12-18T10:48:56;25.35;;;9.57;;
27939;SDS011;15275;51.716;14.324;2022-12-18T10:51:24;27.52;;;10.15;;
27939;SDS011;15275;51.716;14.324;2022-12-18T10:54:02;20.48;;;9.77;;
27939;SDS011;15275;51.716;14.324;2022-12-18T10:56:37;21.85;;;10.55;;
27939;SDS011;15275;51.716;14.324;2022-12-18T10:59:05;19.15;;;8.88;;
27939;SDS011;15275;51.716;14.324;2022-12-18T11:04:25;17.63;;;8.30;;
27939;SDS011;15275;51.716;14.324;2022-12-18T11:09:23;20.40;;;9.23;;
27939;SDS011;15275;51.716;14.324;2022-12-18T11:11:59;22.67;;;10.13;;
27939;SDS011;15275;51.716;14.324;2022-12-18T11:17:20;20.58;;;9.23;;
27939;SDS011;15275;51.716;14.324;2022-12-18T11:19:59;22.42;;;8.45;;
27939;SDS011;15275;51.716;14.324;2022-12-18T11:22:36;19.67;;;8.70;;
27939;SDS011;15275;51.716;14.324;2022-12-18T11:27:32;18.98;;;9.18;;
27939;SDS011;15275;51.716;14.324;2022-12-18T11:32:54;23.73;;;9.32;;
27939;SDS011;15275;51.716;14.324;2022-12-18T11:35:49;21.13;;;8.93;;
27939;SDS011;15275;51.716;14.324;2022-12-18T11:38:23;19.27;;;9.40;;
27939;SDS011;15275;51.716;14.324;2022-12-18T11:44:28;23.25;;;9.20;;
27939;SDS011;15275;51.716;14.324;2022-12-18T11:47:05;18.85;;;8.20;;
27939;SDS011;15275;51.716;14.324;2022-12-18T11:49:50;20.52;;;8.85;;
27939;SDS011;15275;51.716;14.324;2022-12-18T11:54:51;25.20;;;9.82;;
27939;SDS011;15275;51.716;14.324;2022-12-18T12:02:56;23.85;;;9.48;;
27939;SDS011;15275;51.716;14.324;2022-12-18T12:06:18;21.55;;;9.02;;
27939;SDS011;15275;51.716;14.324;2022-12-18T12:09:03;20.88;;;9.65;;
27939;SDS011;15275;51.716;14.324;2022-12-18T12:23:26;24.73;;;9.27;;
27939;SDS011;15275;51.716;14.324;2022-12-18T12:29:04;29.42;;;10.48;;
27939;SDS011;15275;51.716;14.324;2022-12-18T12:40:35;22.00;;;9.98;;
27939;SDS011;15275;51.716;14.324;2022-12-18T12:46:11;22.27;;;9.80;;
27939;SDS011;15275;51.716;14.324;2022-12-18T12:51:25;20.52;;;9.40;;
27939;SDS011;15275;51.716;14.324;2022-12-18T12:53:54;22.27;;;9.32;;
27939;SDS011;15275;51.716;14.324;2022-12-18T12:56:24;23.35;;;10.32;;
27939;SDS011;15275;51.716;14.324;2022-12-18T13:05:34;26.55;;;9.98;;
27939;SDS011;15275;51.716;14.324;2022-12-18T13:08:26;22.88;;;9.15;;
27939;SDS011;15275;51.716;14.324;2022-12-18T13:10:54;25.85;;;10.88;;
27939;SDS011;15275;51.716;14.324;2022-12-18T13:13:48;26.42;;;10.23;;
27939;SDS011;15275;51.716;14.324;2022-12-18T13:16:18;21.75;;;9.88;;
27939;SDS011;15275;51.716;14.324;2022-12-18T13:18:49;24.73;;;9.70;;
27939;SDS011;15275;51.716;14.324;2022-12-18T13:23:53;24.05;;;9.30;;
27939;SDS011;15275;51.716;14.324;2022-12-18T13:28:52;21.77;;;9.52;;
27939;SDS011;15275;51.716;14.324;2022-12-18T13:34:15;26.98;;;10.50;;
27939;SDS011;15275;51.716;14.324;2022-12-18T13:36:46;26.45;;;10.75;;
27939;SDS011;15275;51.716;14.324;2022-12-18T13:41:40;28.42;;;10.63;;
27939;SDS011;15275;51.716;14.324;2022-12-18T13:44:22;23.58;;;9.68;;
27939;SDS011;15275;51.716;14.324;2022-12-18T13:47:03;26.65;;;10.50;;
27939;SDS011;15275;51.716;14.324;2022-12-18T13:52:40;24.83;;;11.45;;
27939;SDS011;15275;51.716;14.324;2022-12-18T13:55:02;24.48;;;10.55;;
27939;SDS011;15275;51.716;14.324;2022-12-18T13:57:37;22.15;;;9.57;;
27939;SDS011;15275;51.716;14.324;2022-12-18T14:02:49;22.40;;;9.50;;
27939;SDS011;15275;51.716;14.324;2022-12-18T14:08:01;30.73;;;10.85;;
27939;SDS011;15275;51.716;14.324;2022-12-18T14:10:39;29.63;;;11.95;;
27939;SDS011;15275;51.716;14.324;2022-12-18T14:13:08;30.00;;;11.65;;
27939;SDS011;15275;51.716;14.324;2022-12-18T14:15:39;27.45;;;10.40;;
27939;SDS011;15275;51.716;14.324;2022-12-18T14:18:15;26.55;;;11.30;;
27939;SDS011;15275;51.716;14.324;2022-12-18T14:20:47;27.67;;;10.30;;
27939;SDS011;15275;51.716;14.324;2022-12-18T14:23:29;26.00;;;12.45;;
27939;SDS011;15275;51.716;14.324;2022-12-18T14:28:57;28.70;;;11.68;;
27939;SDS011;15275;51.716;14.324;2022-12-18T14:34:42;29.77;;;11.52;;
27939;SDS011;15275;51.716;14.324;2022-12-18T14:37:13;34.58;;;12.18;;
27939;SDS011;15275;51.716;14.324;2022-12-18T14:39:55;31.25;;;12.25;;
27939;SDS011;15275;51.716;14.324;2022-12-18T14:42:27;25.85;;;10.13;;
27939;SDS011;15275;51.716;14.324;2022-12-18T14:48:18;23.90;;;9.85;;
27939;SDS011;15275;51.716;14.324;2022-12-18T14:50:54;27.02;;;10.65;;
27939;SDS011;15275;51.716;14.324;2022-12-18T14:55:59;19.30;;;7.63;;
27939;SDS011;15275;51.716;14.324;2022-12-18T14:58:26;26.40;;;10.10;;
27939;SDS011;15275;51.716;14.324;2022-12-18T15:00:52;27.90;;;12.15;;
27939;SDS011;15275;51.716;14.324;2022-12-18T15:03:19;25.83;;;9.93;;
27939;SDS011;15275;51.716;14.324;2022-12-18T15:05:46;29.70;;;13.02;;
27939;SDS011;15275;51.716;14.324;2022-12-18T15:08:34;31.70;;;13.25;;
27939;SDS011;15275;51.716;14.324;2022-12-18T15:11:02;30.15;;;11.98;;
27939;SDS011;15275;51.716;14.324;2022-12-18T15:13:28;33.90;;;12.18;;
27939;SDS011;15275;51.716;14.324;2022-12-18T15:15:55;32.72;;;12.95;;
27939;SDS011;15275;51.716;14.324;2022-12-18T15:18:32;35.85;;;12.32;;
27939;SDS011;15275;51.716;14.324;2022-12-18T15:21:07;34.80;;;12.32;;
27939;SDS011;15275;51.716;14.324;2022-12-18T15:23:37;28.15;;;11.63;;
27939;SDS011;15275;51.716;14.324;2022-12-18T15:26:10;28.27;;;11.68;;
27939;SDS011;15275;51.716;14.324;2022-12-18T15:28:47;28.13;;;11.32;;
27939;SDS011;15275;51.716;14.324;2022-12-18T15:31:30;32.17;;;12.00;;
27939;SDS011;15275;51.716;14.324;2022-12-18T15:36:44;30.88;;;11.05;;
27939;SDS011;15275;51.716;14.324;2022-12-18T15:39:10;28.58;;;11.70;;
27939;SDS011;15275;51.716;14.324;2022-12-18T15:41:38;30.67;;;11.90;;
27939;SDS011;15275;51.716;14.324;2022-12-18T15:44:20;32.50;;;12.00;;
27939;SDS011;15275;51.716;14.324;2022-12-18T15:46:48;27.55;;;10.32;;
27939;SDS011;15275;51.716;14.324;2022-12-18T15:49:14;25.13;;;9.88;;
27939;SDS011;15275;51.716;14.324;2022-12-18T15:51:40;31.05;;;12.55;;
27939;SDS011;15275;51.716;14.324;2022-12-18T15:54:09;39.10;;;13.27;;
27939;SDS011;15275;51.716;14.324;2022-12-18T15:56:39;31.37;;;12.70;;
27939;SDS011;15275;51.716;14.324;2022-12-18T15:59:23;35.38;;;12.75;;
27939;SDS011;15275;51.716;14.324;2022-12-18T16:01:50;30.98;;;11.07;;
27939;SDS011;15275;51.716;14.324;2022-12-18T16:04:21;30.52;;;11.45;;
27939;SDS011;15275;51.716;14.324;2022-12-18T16:06:48;33.08;;;11.68;;
27939;SDS011;15275;51.716;14.324;2022-12-18T16:09:16;30.77;;;11.48;;
27939;SDS011;15275;51.716;14.324;2022-12-18T16:11:43;30.55;;;11.93;;
27939;SDS011;15275;51.716;14.324;2022-12-18T16:16:45;33.08;;;11.95;;
27939;SDS011;15275;51.716;14.324;2022-12-18T16:19:13;31.85;;;11.32;;
27939;SDS011;15275;51.716;14.324;2022-12-18T16:21:39;33.92;;;12.70;;
27939;SDS011;15275;51.716;14.324;2022-12-18T16:24:07;37.10;;;13.38;;
27939;SDS011;15275;51.716;14.324;2022-12-18T16:26:43;33.97;;;12.88;;
27939;SDS011;15275;51.716;14.324;2022-12-18T16:29:09;41.33;;;14.52;;
27939;SDS011;15275;51.716;14.324;2022-12-18T16:31:36;35.95;;;13.38;;
27939;SDS011;15275;51.716;14.324;2022-12-18T16:34:13;41.67;;;13.60;;
27939;SDS011;15275;51.716;14.324;2022-12-18T16:36:47;39.88;;;13.05;;
27939;SDS011;15275;51.716;14.324;2022-12-18T16:39:17;37.92;;;14.55;;
27939;SDS011;15275;51.716;14.324;2022-12-18T16:41:43;35.85;;;13.38;;
27939;SDS011;15275;51.716;14.324;2022-12-18T16:44:09;41.47;;;14.45;;
27939;SDS011;15275;51.716;14.324;2022-12-18T16:46:35;38.90;;;14.57;;
27939;SDS011;15275;51.716;14.324;2022-12-18T16:49:02;36.50;;;12.85;;
27939;SDS011;15275;51.716;14.324;2022-12-18T16:51:28;34.33;;;13.40;;
27939;SDS011;15275;51.716;14.324;2022-12-18T16:53:57;35.55;;;13.60;;
27939;SDS011;15275;51.716;14.324;2022-12-18T16:56:23;35.65;;;12.25;;
27939;SDS011;15275;51.716;14.324;2022-12-18T16:58:50;39.33;;;12.70;;
27939;SDS011;15275;51.716;14.324;2022-12-18T17:01:18;38.92;;;14.30;;